Aragoiania, Brazil
Current Conditions -  °F | °C
As of 4:15 PM on Wednesday 28 Jan 2015 (Local Time) from SBGO Reporting Station
Thunderstorm Thunderstorm  
Wind Chill: 84°   Ceiling: Unl
Heat Index: 85°   Visibility: 6mi
Dew Point: 63°   Wind: 8mph
Humidity: 48%   Direction: 60°ENE
Pressure: 29.97"   Gusts: NA
Location:  16.91°S, 49.45°W
Report Text: SBGO 281815Z 06007KT 9999 -TSRA SCT035 FEW040CB 29/17 Q1015
Loading
Personal Weather Stations






























Interactive Weather Map New forecast layout! Learn more

10-Day Weather Forecast

Advertisements
Track Severe Weather on mobile